sensor_id;sensor_type;location;lat;lon;timestamp;temperature;humidity
46231;DHT22;31949;51.404;-0.038;2022-07-30T00:00:21;19.60;96.10
46231;DHT22;31949;51.404;-0.038;2022-07-30T00:02:51;19.60;96.00
46231;DHT22;31949;51.404;-0.038;2022-07-30T00:05:19;19.60;95.90
46231;DHT22;31949;51.404;-0.038;2022-07-30T00:07:46;19.60;95.90
46231;DHT22;31949;51.404;-0.038;2022-07-30T00:10:14;19.50;96.40
46231;DHT22;31949;51.404;-0.038;2022-07-30T00:12:41;19.50;96.30
46231;DHT22;31949;51.404;-0.038;2022-07-30T00:15:09;19.50;96.40
46231;DHT22;31949;51.404;-0.038;2022-07-30T00:17:36;19.50;96.40
46231;DHT22;31949;51.404;-0.038;2022-07-30T00:20:03;19.40;96.70
46231;DHT22;31949;51.404;-0.038;2022-07-30T00:22:31;19.40;96.50
46231;DHT22;31949;51.404;-0.038;2022-07-30T00:24:58;19.30;96.90
46231;DHT22;31949;51.404;-0.038;2022-07-30T00:27:25;19.30;96.50
46231;DHT22;31949;51.404;-0.038;2022-07-30T00:29:52;19.30;96.40
46231;DHT22;31949;51.404;-0.038;2022-07-30T00:32:19;19.20;96.70
46231;DHT22;31949;51.404;-0.038;2022-07-30T00:34:46;19.20;96.20
46231;DHT22;31949;51.404;-0.038;2022-07-30T00:37:14;19.20;96.70
46231;DHT22;31949;51.404;-0.038;2022-07-30T00:39:41;19.30;96.50
46231;DHT22;31949;51.404;-0.038;2022-07-30T00:42:09;19.30;96.90
46231;DHT22;31949;51.404;-0.038;2022-07-30T00:44:36;19.30;97.10
46231;DHT22;31949;51.404;-0.038;2022-07-30T00:47:07;19.20;97.00
46231;DHT22;31949;51.404;-0.038;2022-07-30T00:49:34;19.20;96.70
46231;DHT22;31949;51.404;-0.038;2022-07-30T00:52:01;19.20;96.80
46231;DHT22;31949;51.404;-0.038;2022-07-30T00:54:28;19.20;97.00
46231;DHT22;31949;51.404;-0.038;2022-07-30T00:56:55;19.20;96.80
46231;DHT22;31949;51.404;-0.038;2022-07-30T00:59:23;19.20;96.80
46231;DHT22;31949;51.404;-0.038;2022-07-30T01:01:50;19.20;97.20
46231;DHT22;31949;51.404;-0.038;2022-07-30T01:04:17;19.20;96.90
46231;DHT22;31949;51.404;-0.038;2022-07-30T01:06:45;19.10;97.20
46231;DHT22;31949;51.404;-0.038;2022-07-30T01:09:12;19.10;97.40
46231;DHT22;31949;51.404;-0.038;2022-07-30T01:11:40;19.10;97.40
46231;DHT22;31949;51.404;-0.038;2022-07-30T01:14:08;19.00;97.30
46231;DHT22;31949;51.404;-0.038;2022-07-30T01:16:38;19.00;97.20
46231;DHT22;31949;51.404;-0.038;2022-07-30T01:19:16;19.00;97.10
46231;DHT22;31949;51.404;-0.038;2022-07-30T01:27:32;18.90;97.30
46231;DHT22;31949;51.404;-0.038;2022-07-30T01:30:03;18.90;96.70
46231;DHT22;31949;51.404;-0.038;2022-07-30T01:32:34;18.90;96.90
46231;DHT22;31949;51.404;-0.038;2022-07-30T01:35:03;18.80;97.00
46231;DHT22;31949;51.404;-0.038;2022-07-30T01:37:32;18.80;97.00
46231;DHT22;31949;51.404;-0.038;2022-07-30T01:40:00;18.80;96.90
46231;DHT22;31949;51.404;-0.038;2022-07-30T01:42:28;18.80;96.30
46231;DHT22;31949;51.404;-0.038;2022-07-30T01:44:57;18.80;96.20
46231;DHT22;31949;51.404;-0.038;2022-07-30T01:47:25;18.80;96.80
46231;DHT22;31949;51.404;-0.038;2022-07-30T01:49:55;18.80;96.70
46231;DHT22;31949;51.404;-0.038;2022-07-30T01:52:23;18.80;96.20
46231;DHT22;31949;51.404;-0.038;2022-07-30T01:54:53;18.80;96.60
46231;DHT22;31949;51.404;-0.038;2022-07-30T01:57:22;18.70;97.00
46231;DHT22;31949;51.404;-0.038;2022-07-30T01:59:56;18.60;96.80
46231;DHT22;31949;51.404;-0.038;2022-07-30T02:02:25;18.60;96.90
46231;DHT22;31949;51.404;-0.038;2022-07-30T02:04:52;18.60;96.90
46231;DHT22;31949;51.404;-0.038;2022-07-30T02:07:28;18.60;97.10
46231;DHT22;31949;51.404;-0.038;2022-07-30T02:10:07;18.60;97.00
46231;DHT22;31949;51.404;-0.038;2022-07-30T02:12:47;18.50;98.10
46231;DHT22;31949;51.404;-0.038;2022-07-30T02:15:32;18.40;98.10
46231;DHT22;31949;51.404;-0.038;2022-07-30T02:18:12;18.40;97.80
46231;DHT22;31949;51.404;-0.038;2022-07-30T02:20:44;18.40;97.60
46231;DHT22;31949;51.404;-0.038;2022-07-30T02:23:16;18.40;97.70
46231;DHT22;31949;51.404;-0.038;2022-07-30T02:25:48;18.40;97.90
46231;DHT22;31949;51.404;-0.038;2022-07-30T02:28:20;18.40;98.10
46231;DHT22;31949;51.404;-0.038;2022-07-30T02:30:54;18.40;97.80
46231;DHT22;31949;51.404;-0.038;2022-07-30T02:33:27;18.40;98.30
46231;DHT22;31949;51.404;-0.038;2022-07-30T02:35:58;18.30;98.20
46231;DHT22;31949;51.404;-0.038;2022-07-30T02:38:27;18.30;98.90
46231;DHT22;31949;51.404;-0.038;2022-07-30T02:40:57;18.30;98.80
46231;DHT22;31949;51.404;-0.038;2022-07-30T02:43:25;18.30;98.50
46231;DHT22;31949;51.404;-0.038;2022-07-30T02:46:03;18.30;98.60
46231;DHT22;31949;51.404;-0.038;2022-07-30T02:48:50;18.30;98.60
46231;DHT22;31949;51.404;-0.038;2022-07-30T02:51:20;18.30;98.60
46231;DHT22;31949;51.404;-0.038;2022-07-30T02:53:48;18.30;98.70
46231;DHT22;31949;51.404;-0.038;2022-07-30T02:56:18;18.30;99.00
46231;DHT22;31949;51.404;-0.038;2022-07-30T02:58:48;18.20;99.30
46231;DHT22;31949;51.404;-0.038;2022-07-30T03:01:17;18.20;99.30
46231;DHT22;31949;51.404;-0.038;2022-07-30T03:03:45;18.20;99.80
46231;DHT22;31949;51.404;-0.038;2022-07-30T03:06:14;18.10;99.60
46231;DHT22;31949;51.404;-0.038;2022-07-30T03:08:43;18.10;99.50
46231;DHT22;31949;51.404;-0.038;2022-07-30T03:11:12;18.10;99.90
46231;DHT22;31949;51.404;-0.038;2022-07-30T03:13:39;18.10;99.60
46231;DHT22;31949;51.404;-0.038;2022-07-30T03:16:10;18.00;99.90
46231;DHT22;31949;51.404;-0.038;2022-07-30T03:18:39;18.00;99.90
46231;DHT22;31949;51.404;-0.038;2022-07-30T03:21:09;18.00;99.90
46231;DHT22;31949;51.404;-0.038;2022-07-30T03:23:39;18.00;99.90
46231;DHT22;31949;51.404;-0.038;2022-07-30T03:26:08;17.90;99.90
46231;DHT22;31949;51.404;-0.038;2022-07-30T03:28:37;17.90;99.90
46231;DHT22;31949;51.404;-0.038;2022-07-30T03:31:06;17.90;99.90
46231;DHT22;31949;51.404;-0.038;2022-07-30T03:33:35;17.90;99.90
46231;DHT22;31949;51.404;-0.038;2022-07-30T03:36:06;17.90;99.90
46231;DHT22;31949;51.404;-0.038;2022-07-30T03:38:36;17.90;99.90
46231;DHT22;31949;51.404;-0.038;2022-07-30T03:41:05;17.90;99.70
46231;DHT22;31949;51.404;-0.038;2022-07-30T03:43:34;17.90;99.90
46231;DHT22;31949;51.404;-0.038;2022-07-30T03:46:04;17.90;99.80
46231;DHT22;31949;51.404;-0.038;2022-07-30T03:48:35;17.80;99.90
46231;DHT22;31949;51.404;-0.038;2022-07-30T03:51:05;17.80;99.90
46231;DHT22;31949;51.404;-0.038;2022-07-30T03:53:33;17.80;99.90
46231;DHT22;31949;51.404;-0.038;2022-07-30T03:56:27;17.80;99.90
46231;DHT22;31949;51.404;-0.038;2022-07-30T03:59:04;17.70;99.90
46231;DHT22;31949;51.404;-0.038;2022-07-30T04:01:33;17.70;99.90
46231;DHT22;31949;51.404;-0.038;2022-07-30T04:04:16;17.70;99.90
46231;DHT22;31949;51.404;-0.038;2022-07-30T04:06:44;17.60;99.90
46231;DHT22;31949;51.404;-0.038;2022-07-30T04:09:13;17.70;99.90
46231;DHT22;31949;51.404;-0.038;2022-07-30T04:11:42;17.60;99.90
46231;DHT22;31949;51.404;-0.038;2022-07-30T04:14:12;17.50;99.90
46231;DHT22;31949;51.404;-0.038;2022-07-30T04:17:02;17.50;99.90
46231;DHT22;31949;51.404;-0.038;2022-07-30T04:19:34;17.50;99.90
46231;DHT22;31949;51.404;-0.038;2022-07-30T04:22:05;17.40;99.90
46231;DHT22;31949;51.404;-0.038;2022-07-30T04:24:36;17.40;99.90
46231;DHT22;31949;51.404;-0.038;2022-07-30T04:27:05;17.40;99.90
46231;DHT22;31949;51.404;-0.038;2022-07-30T04:29:32;17.40;99.90
46231;DHT22;31949;51.404;-0.038;2022-07-30T04:32:00;17.40;99.90
46231;DHT22;31949;51.404;-0.038;2022-07-30T04:34:51;17.40;99.90
46231;DHT22;31949;51.404;-0.038;2022-07-30T04:37:41;17.30;99.90
46231;DHT22;31949;51.404;-0.038;2022-07-30T04:40:08;17.30;99.90
46231;DHT22;31949;51.404;-0.038;2022-07-30T04:42:36;17.40;99.90
46231;DHT22;31949;51.404;-0.038;2022-07-30T04:45:06;17.40;99.90
46231;DHT22;31949;51.404;-0.038;2022-07-30T04:47:51;17.30;99.90
46231;DHT22;31949;51.404;-0.038;2022-07-30T04:50:41;17.30;99.90
46231;DHT22;31949;51.404;-0.038;2022-07-30T04:53:11;17.20;99.90
46231;DHT22;31949;51.404;-0.038;2022-07-30T04:55:45;17.30;99.90
46231;DHT22;31949;51.404;-0.038;2022-07-30T04:58:17;17.40;99.90
46231;DHT22;31949;51.404;-0.038;2022-07-30T05:00:46;17.40;99.90
46231;DHT22;31949;51.404;-0.038;2022-07-30T05:03:16;17.40;99.90
46231;DHT22;31949;51.404;-0.038;2022-07-30T05:05:50;17.50;99.90
46231;DHT22;31949;51.404;-0.038;2022-07-30T05:08:24;17.50;99.90
46231;DHT22;31949;51.404;-0.038;2022-07-30T05:10:52;17.60;99.90
46231;DHT22;31949;51.404;-0.038;2022-07-30T05:13:20;17.60;99.90
46231;DHT22;31949;51.404;-0.038;2022-07-30T05:15:48;17.60;99.90
46231;DHT22;31949;51.404;-0.038;2022-07-30T05:18:18;17.60;99.90
46231;DHT22;31949;51.404;-0.038;2022-07-30T05:20:46;17.60;99.90
46231;DHT22;31949;51.404;-0.038;2022-07-30T05:23:21;17.70;99.90
46231;DHT22;31949;51.404;-0.038;2022-07-30T05:25:58;17.70;99.90
46231;DHT22;31949;51.404;-0.038;2022-07-30T05:28:36;17.80;99.90
46231;DHT22;31949;51.404;-0.038;2022-07-30T05:31:10;17.70;99.90
46231;DHT22;31949;51.404;-0.038;2022-07-30T05:33:39;17.80;99.90
46231;DHT22;31949;51.404;-0.038;2022-07-30T05:36:14;17.80;99.90
46231;DHT22;31949;51.404;-0.038;2022-07-30T05:38:41;17.80;99.90
46231;DHT22;31949;51.404;-0.038;2022-07-30T05:41:26;17.80;99.90
46231;DHT22;31949;51.404;-0.038;2022-07-30T05:44:22;17.90;99.90
46231;DHT22;31949;51.404;-0.038;2022-07-30T05:46:51;18.00;99.90
46231;DHT22;31949;51.404;-0.038;2022-07-30T05:49:18;18.10;99.90
46231;DHT22;31949;51.404;-0.038;2022-07-30T05:51:45;18.10;99.90
46231;DHT22;31949;51.404;-0.038;2022-07-30T05:54:16;18.20;99.90
46231;DHT22;31949;51.404;-0.038;2022-07-30T05:56:43;18.40;99.90
46231;DHT22;31949;51.404;-0.038;2022-07-30T05:59:13;18.60;99.90
46231;DHT22;31949;51.404;-0.038;2022-07-30T06:01:59;18.60;99.90
46231;DHT22;31949;51.404;-0.038;2022-07-30T06:04:36;18.70;99.90
46231;DHT22;31949;51.404;-0.038;2022-07-30T06:07:12;18.80;99.90
46231;DHT22;31949;51.404;-0.038;2022-07-30T06:09:39;18.90;99.90
46231;DHT22;31949;51.404;-0.038;2022-07-30T06:12:07;18.90;99.90
46231;DHT22;31949;51.404;-0.038;2022-07-30T06:14:35;18.90;99.90
46231;DHT22;31949;51.404;-0.038;2022-07-30T06:17:04;19.00;99.90
46231;DHT22;31949;51.404;-0.038;2022-07-30T06:19:50;19.10;99.90
46231;DHT22;31949;51.404;-0.038;2022-07-30T06:22:21;19.20;99.90
46231;DHT22;31949;51.404;-0.038;2022-07-30T06:24:53;19.40;99.90
46231;DHT22;31949;51.404;-0.038;2022-07-30T06:27:24;19.30;99.90
46231;DHT22;31949;51.404;-0.038;2022-07-30T06:29:59;19.40;99.90
46231;DHT22;31949;51.404;-0.038;2022-07-30T06:32:27;19.50;99.90
46231;DHT22;31949;51.404;-0.038;2022-07-30T06:34:54;19.50;99.90
46231;DHT22;31949;51.404;-0.038;2022-07-30T06:37:31;19.50;99.90
46231;DHT22;31949;51.404;-0.038;2022-07-30T06:40:20;19.60;99.90
46231;DHT22;31949;51.404;-0.038;2022-07-30T06:43:05;19.80;99.90
46231;DHT22;31949;51.404;-0.038;2022-07-30T06:45:41;19.80;99.90
46231;DHT22;31949;51.404;-0.038;2022-07-30T06:48:23;20.00;99.90
46231;DHT22;31949;51.404;-0.038;2022-07-30T06:50:51;20.10;99.90
46231;DHT22;31949;51.404;-0.038;2022-07-30T06:53:19;20.20;99.90
46231;DHT22;31949;51.404;-0.038;2022-07-30T06:56:05;20.30;99.90
46231;DHT22;31949;51.404;-0.038;2022-07-30T06:58:41;20.30;99.90
46231;DHT22;31949;51.404;-0.038;2022-07-30T07:01:32;20.20;99.90
46231;DHT22;31949;51.404;-0.038;2022-07-30T07:03:59;20.30;99.90
46231;DHT22;31949;51.404;-0.038;2022-07-30T07:06:27;20.30;99.90
46231;DHT22;31949;51.404;-0.038;2022-07-30T07:08:55;20.30;99.90
46231;DHT22;31949;51.404;-0.038;2022-07-30T07:11:30;20.30;99.90
46231;DHT22;31949;51.404;-0.038;2022-07-30T07:14:00;20.60;99.90
46231;DHT22;31949;51.404;-0.038;2022-07-30T07:16:34;20.80;99.90
46231;DHT22;31949;51.404;-0.038;2022-07-30T07:19:25;20.90;99.90
46231;DHT22;31949;51.404;-0.038;2022-07-30T07:22:13;21.00;99.70
46231;DHT22;31949;51.404;-0.038;2022-07-30T07:24:42;21.00;99.80
46231;DHT22;31949;51.404;-0.038;2022-07-30T07:27:13;21.30;99.40
46231;DHT22;31949;51.404;-0.038;2022-07-30T07:29:44;21.40;98.90
46231;DHT22;31949;51.404;-0.038;2022-07-30T07:32:29;21.50;98.90
46231;DHT22;31949;51.404;-0.038;2022-07-30T07:34:56;21.40;98.90
46231;DHT22;31949;51.404;-0.038;2022-07-30T07:37:23;21.50;98.80
46231;DHT22;31949;51.404;-0.038;2022-07-30T07:39:51;21.50;99.00
46231;DHT22;31949;51.404;-0.038;2022-07-30T07:42:18;21.70;98.50
46231;DHT22;31949;51.404;-0.038;2022-07-30T07:44:47;21.70;98.60
46231;DHT22;31949;51.404;-0.038;2022-07-30T07:47:16;21.90;98.50
46231;DHT22;31949;51.404;-0.038;2022-07-30T07:49:54;22.10;98.00
46231;DHT22;31949;51.404;-0.038;2022-07-30T07:52:22;22.20;97.80
46231;DHT22;31949;51.404;-0.038;2022-07-30T07:54:49;22.20;97.60
46231;DHT22;31949;51.404;-0.038;2022-07-30T07:57:17;22.10;97.80
46231;DHT22;31949;51.404;-0.038;2022-07-30T07:59:46;22.30;97.40
46231;DHT22;31949;51.404;-0.038;2022-07-30T08:02:23;22.30;97.30
46231;DHT22;31949;51.404;-0.038;2022-07-30T08:05:05;22.50;97.20
46231;DHT22;31949;51.404;-0.038;2022-07-30T08:07:41;22.60;97.10
46231;DHT22;31949;51.404;-0.038;2022-07-30T08:10:09;22.70;96.90
46231;DHT22;31949;51.404;-0.038;2022-07-30T08:12:45;22.70;96.60
46231;DHT22;31949;51.404;-0.038;2022-07-30T08:15:32;22.60;96.60
46231;DHT22;31949;51.404;-0.038;2022-07-30T08:18:18;22.40;96.80
46231;DHT22;31949;51.404;-0.038;2022-07-30T08:21:09;22.50;96.70
46231;DHT22;31949;51.404;-0.038;2022-07-30T08:23:36;22.50;96.90
46231;DHT22;31949;51.404;-0.038;2022-07-30T08:26:08;22.40;96.70
46231;DHT22;31949;51.404;-0.038;2022-07-30T08:28:35;22.60;96.70
46231;DHT22;31949;51.404;-0.038;2022-07-30T08:31:05;22.80;96.10
46231;DHT22;31949;51.404;-0.038;2022-07-30T08:33:33;22.80;96.20
46231;DHT22;31949;51.404;-0.038;2022-07-30T08:36:02;22.80;95.70
46231;DHT22;31949;51.404;-0.038;2022-07-30T08:38:36;22.70;96.10
46231;DHT22;31949;51.404;-0.038;2022-07-30T08:41:04;22.50;96.00
46231;DHT22;31949;51.404;-0.038;2022-07-30T08:43:34;22.70;95.90
46231;DHT22;31949;51.404;-0.038;2022-07-30T08:46:05;22.70;95.60
46231;DHT22;31949;51.404;-0.038;2022-07-30T08:48:46;22.80;95.80
46231;DHT22;31949;51.404;-0.038;2022-07-30T08:51:20;22.90;95.80
46231;DHT22;31949;51.404;-0.038;2022-07-30T08:54:07;23.10;95.70
46231;DHT22;31949;51.404;-0.038;2022-07-30T08:56:36;22.90;95.70
46231;DHT22;31949;51.404;-0.038;2022-07-30T08:59:05;22.90;95.90
46231;DHT22;31949;51.404;-0.038;2022-07-30T09:01:33;23.10;95.70
46231;DHT22;31949;51.404;-0.038;2022-07-30T09:04:00;23.20;95.50
46231;DHT22;31949;51.404;-0.038;2022-07-30T09:06:28;23.30;95.50
46231;DHT22;31949;51.404;-0.038;2022-07-30T09:08:55;23.40;95.20
46231;DHT22;31949;51.404;-0.038;2022-07-30T09:11:22;23.40;94.70
46231;DHT22;31949;51.404;-0.038;2022-07-30T09:13:50;23.30;94.80
46231;DHT22;31949;51.404;-0.038;2022-07-30T09:16:24;23.40;95.00
46231;DHT22;31949;51.404;-0.038;2022-07-30T09:18:55;23.60;94.60
46231;DHT22;31949;51.404;-0.038;2022-07-30T09:21:24;23.60;94.90
46231;DHT22;31949;51.404;-0.038;2022-07-30T09:24:12;23.80;94.60
46231;DHT22;31949;51.404;-0.038;2022-07-30T09:27:05;23.80;94.40
46231;DHT22;31949;51.404;-0.038;2022-07-30T09:29:58;24.10;94.10
46231;DHT22;31949;51.404;-0.038;2022-07-30T09:32:52;24.00;94.20
46231;DHT22;31949;51.404;-0.038;2022-07-30T09:35:32;24.20;93.40
46231;DHT22;31949;51.404;-0.038;2022-07-30T09:38:26;24.20;93.10
46231;DHT22;31949;51.404;-0.038;2022-07-30T09:41:14;24.10;93.40
46231;DHT22;31949;51.404;-0.038;2022-07-30T09:44:08;24.20;93.00
46231;DHT22;31949;51.404;-0.038;2022-07-30T09:46:42;24.10;93.30
46231;DHT22;31949;51.404;-0.038;2022-07-30T09:49:16;23.90;93.00
46231;DHT22;31949;51.404;-0.038;2022-07-30T09:51:44;24.10;92.90
46231;DHT22;31949;51.404;-0.038;2022-07-30T09:54:49;24.10;92.60
46231;DHT22;31949;51.404;-0.038;2022-07-30T09:57:25;24.20;92.60
46231;DHT22;31949;51.404;-0.038;2022-07-30T10:00:23;24.30;92.60
46231;DHT22;31949;51.404;-0.038;2022-07-30T10:03:18;24.10;92.90
46231;DHT22;31949;51.404;-0.038;2022-07-30T10:06:35;24.30;92.80
46231;DHT22;31949;51.404;-0.038;2022-07-30T10:09:33;24.40;92.60
46231;DHT22;31949;51.404;-0.038;2022-07-30T10:12:04;24.50;92.30
46231;DHT22;31949;51.404;-0.038;2022-07-30T10:14:42;24.40;92.20
46231;DHT22;31949;51.404;-0.038;2022-07-30T10:17:12;24.50;92.50
46231;DHT22;31949;51.404;-0.038;2022-07-30T10:19:44;24.70;92.10
46231;DHT22;31949;51.404;-0.038;2022-07-30T10:22:34;24.70;92.60
46231;DHT22;31949;51.404;-0.038;2022-07-30T10:25:25;24.70;92.50
46231;DHT22;31949;51.404;-0.038;2022-07-30T10:28:13;24.80;92.70
46231;DHT22;31949;51.404;-0.038;2022-07-30T10:30:42;24.70;92.60
46231;DHT22;31949;51.404;-0.038;2022-07-30T10:33:11;24.90;92.50
46231;DHT22;31949;51.404;-0.038;2022-07-30T10:35:58;24.90;92.40
46231;DHT22;31949;51.404;-0.038;2022-07-30T10:38:30;25.00;92.20
46231;DHT22;31949;51.404;-0.038;2022-07-30T10:49:17;24.80;92.30
46231;DHT22;31949;51.404;-0.038;2022-07-30T10:51:47;24.70;92.10
46231;DHT22;31949;51.404;-0.038;2022-07-30T10:57:16;25.10;92.30
46231;DHT22;31949;51.404;-0.038;2022-07-30T11:02:18;24.90;92.20
46231;DHT22;31949;51.404;-0.038;2022-07-30T11:04:46;25.00;92.00
46231;DHT22;31949;51.404;-0.038;2022-07-30T11:09:50;25.40;91.90
46231;DHT22;31949;51.404;-0.038;2022-07-30T11:15:14;25.60;91.50
46231;DHT22;31949;51.404;-0.038;2022-07-30T11:18:03;25.60;92.00
46231;DHT22;31949;51.404;-0.038;2022-07-30T11:20:39;25.90;91.40
46231;DHT22;31949;51.404;-0.038;2022-07-30T11:23:57;26.00;91.60
46231;DHT22;31949;51.404;-0.038;2022-07-30T11:26:01;25.90;91.10
46231;DHT22;31949;51.404;-0.038;2022-07-30T11:28:43;26.10;91.30
46231;DHT22;31949;51.404;-0.038;2022-07-30T11:34:24;25.70;91.90
46231;DHT22;31949;51.404;-0.038;2022-07-30T11:37:12;26.00;91.10
46231;DHT22;31949;51.404;-0.038;2022-07-30T11:42:35;25.90;91.20
46231;DHT22;31949;51.404;-0.038;2022-07-30T11:47:43;26.00;90.50
46231;DHT22;31949;51.404;-0.038;2022-07-30T11:50:25;26.10;91.00
46231;DHT22;31949;51.404;-0.038;2022-07-30T11:52:58;26.10;90.50
46231;DHT22;31949;51.404;-0.038;2022-07-30T11:55:36;26.20;90.30
46231;DHT22;31949;51.404;-0.038;2022-07-30T11:58:09;26.30;90.40
46231;DHT22;31949;51.404;-0.038;2022-07-30T12:00:39;26.30;90.00
46231;DHT22;31949;51.404;-0.038;2022-07-30T12:03:08;26.30;89.70
46231;DHT22;31949;51.404;-0.038;2022-07-30T12:05:38;26.30;88.20
46231;DHT22;31949;51.404;-0.038;2022-07-30T12:08:06;26.40;88.30
46231;DHT22;31949;51.404;-0.038;2022-07-30T12:10:33;26.40;88.80
46231;DHT22;31949;51.404;-0.038;2022-07-30T12:13:13;26.40;88.40
46231;DHT22;31949;51.404;-0.038;2022-07-30T12:15:42;26.30;88.70
46231;DHT22;31949;51.404;-0.038;2022-07-30T12:18:10;26.00;89.40
46231;DHT22;31949;51.404;-0.038;2022-07-30T12:20:57;25.90;89.20
46231;DHT22;31949;51.404;-0.038;2022-07-30T12:23:26;25.90;89.00
46231;DHT22;31949;51.404;-0.038;2022-07-30T12:25:54;25.80;88.50
46231;DHT22;31949;51.404;-0.038;2022-07-30T12:28:26;25.70;89.00
46231;DHT22;31949;51.404;-0.038;2022-07-30T12:30:55;25.80;88.80
46231;DHT22;31949;51.404;-0.038;2022-07-30T12:33:23;26.00;88.50
46231;DHT22;31949;51.404;-0.038;2022-07-30T12:35:56;25.90;89.40
46231;DHT22;31949;51.404;-0.038;2022-07-30T12:38:25;25.70;90.10
46231;DHT22;31949;51.404;-0.038;2022-07-30T12:43:47;26.00;89.60
46231;DHT22;31949;51.404;-0.038;2022-07-30T12:46:21;26.10;89.30
46231;DHT22;31949;51.404;-0.038;2022-07-30T12:48:54;26.00;89.60
46231;DHT22;31949;51.404;-0.038;2022-07-30T12:51:23;26.00;90.10
46231;DHT22;31949;51.404;-0.038;2022-07-30T12:53:52;26.20;90.00
46231;DHT22;31949;51.404;-0.038;2022-07-30T12:56:25;26.40;89.20
46231;DHT22;31949;51.404;-0.038;2022-07-30T12:58:55;26.50;88.80
46231;DHT22;31949;51.404;-0.038;2022-07-30T13:01:42;26.60;89.50
46231;DHT22;31949;51.404;-0.038;2022-07-30T13:04:12;26.50;88.00
46231;DHT22;31949;51.404;-0.038;2022-07-30T13:06:39;26.60;89.10
46231;DHT22;31949;51.404;-0.038;2022-07-30T13:09:18;26.60;88.00
46231;DHT22;31949;51.404;-0.038;2022-07-30T13:11:46;26.70;88.70
46231;DHT22;31949;51.404;-0.038;2022-07-30T13:14:15;26.70;88.30
46231;DHT22;31949;51.404;-0.038;2022-07-30T13:16:43;26.80;88.50
46231;DHT22;31949;51.404;-0.038;2022-07-30T13:19:12;27.00;88.60
46231;DHT22;31949;51.404;-0.038;2022-07-30T13:21:40;27.20;87.30
46231;DHT22;31949;51.404;-0.038;2022-07-30T13:24:17;27.30;87.10
46231;DHT22;31949;51.404;-0.038;2022-07-30T13:26:44;27.20;86.80
46231;DHT22;31949;51.404;-0.038;2022-07-30T13:29:12;27.30;87.60
46231;DHT22;31949;51.404;-0.038;2022-07-30T13:31:40;27.30;87.40
46231;DHT22;31949;51.404;-0.038;2022-07-30T13:34:10;27.30;87.60
46231;DHT22;31949;51.404;-0.038;2022-07-30T13:36:37;27.30;86.80
46231;DHT22;31949;51.404;-0.038;2022-07-30T13:39:05;27.30;87.10
46231;DHT22;31949;51.404;-0.038;2022-07-30T13:41:33;27.40;86.70
46231;DHT22;31949;51.404;-0.038;2022-07-30T13:44:02;27.40;86.70
46231;DHT22;31949;51.404;-0.038;2022-07-30T13:46:29;27.40;87.20
46231;DHT22;31949;51.404;-0.038;2022-07-30T13:48:57;27.40;87.90
46231;DHT22;31949;51.404;-0.038;2022-07-30T13:51:24;27.50;86.90
46231;DHT22;31949;51.404;-0.038;2022-07-30T13:53:51;27.60;86.80
46231;DHT22;31949;51.404;-0.038;2022-07-30T13:56:20;27.50;87.30
46231;DHT22;31949;51.404;-0.038;2022-07-30T13:58:47;27.60;87.50
46231;DHT22;31949;51.404;-0.038;2022-07-30T14:01:15;27.50;87.30
46231;DHT22;31949;51.404;-0.038;2022-07-30T14:03:44;27.50;87.40
46231;DHT22;31949;51.404;-0.038;2022-07-30T14:06:17;27.30;86.70
46231;DHT22;31949;51.404;-0.038;2022-07-30T14:08:45;27.40;87.00
46231;DHT22;31949;51.404;-0.038;2022-07-30T14:11:12;27.10;88.30
46231;DHT22;31949;51.404;-0.038;2022-07-30T14:13:40;26.90;88.70
46231;DHT22;31949;51.404;-0.038;2022-07-30T14:16:07;27.10;88.80
46231;DHT22;31949;51.404;-0.038;2022-07-30T14:18:55;27.40;87.70
46231;DHT22;31949;51.404;-0.038;2022-07-30T14:21:23;27.50;88.10
46231;DHT22;31949;51.404;-0.038;2022-07-30T14:23:51;27.60;88.00
46231;DHT22;31949;51.404;-0.038;2022-07-30T14:26:18;27.80;87.60
46231;DHT22;31949;51.404;-0.038;2022-07-30T14:28:45;27.60;87.20
46231;DHT22;31949;51.404;-0.038;2022-07-30T14:31:13;27.70;87.80
46231;DHT22;31949;51.404;-0.038;2022-07-30T14:33:40;27.60;87.40
46231;DHT22;31949;51.404;-0.038;2022-07-30T14:36:07;27.60;87.70
46231;DHT22;31949;51.404;-0.038;2022-07-30T14:38:36;27.50;87.50
46231;DHT22;31949;51.404;-0.038;2022-07-30T14:41:06;27.40;87.90
46231;DHT22;31949;51.404;-0.038;2022-07-30T14:43:34;27.40;88.50
46231;DHT22;31949;51.404;-0.038;2022-07-30T14:46:02;27.40;88.50
46231;DHT22;31949;51.404;-0.038;2022-07-30T14:48:29;27.50;88.20
46231;DHT22;31949;51.404;-0.038;2022-07-30T14:50:56;27.60;87.90
46231;DHT22;31949;51.404;-0.038;2022-07-30T14:53:43;27.60;87.70
46231;DHT22;31949;51.404;-0.038;2022-07-30T14:56:13;27.70;87.60
46231;DHT22;31949;51.404;-0.038;2022-07-30T14:58:43;27.60;88.20
46231;DHT22;31949;51.404;-0.038;2022-07-30T15:01:11;27.60;87.90
46231;DHT22;31949;51.404;-0.038;2022-07-30T15:03:44;27.50;87.80
46231;DHT22;31949;51.404;-0.038;2022-07-30T15:06:11;27.60;87.80
46231;DHT22;31949;51.404;-0.038;2022-07-30T15:08:41;27.70;88.20
46231;DHT22;31949;51.404;-0.038;2022-07-30T15:11:08;27.40;88.80
46231;DHT22;31949;51.404;-0.038;2022-07-30T15:13:36;27.30;89.00
46231;DHT22;31949;51.404;-0.038;2022-07-30T15:16:15;27.30;89.30
46231;DHT22;31949;51.404;-0.038;2022-07-30T15:18:42;27.30;89.70
46231;DHT22;31949;51.404;-0.038;2022-07-30T15:21:10;27.20;90.00
46231;DHT22;31949;51.404;-0.038;2022-07-30T15:23:40;27.20;89.70
46231;DHT22;31949;51.404;-0.038;2022-07-30T15:26:07;27.10;90.00
46231;DHT22;31949;51.404;-0.038;2022-07-30T15:28:35;26.80;90.30
46231;DHT22;31949;51.404;-0.038;2022-07-30T15:31:02;26.90;90.50
46231;DHT22;31949;51.404;-0.038;2022-07-30T15:33:29;26.70;90.60
46231;DHT22;31949;51.404;-0.038;2022-07-30T15:36:02;26.70;90.70
46231;DHT22;31949;51.404;-0.038;2022-07-30T15:38:29;26.60;90.90
46231;DHT22;31949;51.404;-0.038;2022-07-30T15:40:56;26.70;90.90
46231;DHT22;31949;51.404;-0.038;2022-07-30T15:43:23;26.70;90.90
46231;DHT22;31949;51.404;-0.038;2022-07-30T15:45:51;26.70;91.10
46231;DHT22;31949;51.404;-0.038;2022-07-30T15:48:23;26.60;91.30
46231;DHT22;31949;51.404;-0.038;2022-07-30T15:50:59;26.40;91.40
46231;DHT22;31949;51.404;-0.038;2022-07-30T15:53:28;26.60;91.60
46231;DHT22;31949;51.404;-0.038;2022-07-30T15:55:58;26.50;91.50
46231;DHT22;31949;51.404;-0.038;2022-07-30T15:58:25;26.50;91.60
46231;DHT22;31949;51.404;-0.038;2022-07-30T16:00:52;26.40;91.80
46231;DHT22;31949;51.404;-0.038;2022-07-30T16:03:20;26.40;91.70
46231;DHT22;31949;51.404;-0.038;2022-07-30T16:05:47;26.40;91.90
46231;DHT22;31949;51.404;-0.038;2022-07-30T16:08:19;26.50;91.90
46231;DHT22;31949;51.404;-0.038;2022-07-30T16:10:47;26.50;91.90
46231;DHT22;31949;51.404;-0.038;2022-07-30T16:13:14;26.70;91.80
46231;DHT22;31949;51.404;-0.038;2022-07-30T16:15:42;26.70;91.90
46231;DHT22;31949;51.404;-0.038;2022-07-30T16:18:09;26.70;91.90
46231;DHT22;31949;51.404;-0.038;2022-07-30T16:20:37;26.70;91.90
46231;DHT22;31949;51.404;-0.038;2022-07-30T16:23:04;26.80;91.90